Time;durP1;ratioP1;P1;durP2;ratioP2;P2;SDS_P1;SDS_P2;PMS_P1;PMS_P2;Temp;Humidity;BMP_temperature;BMP_pressure;BME280_temperature;BME280_humidity;BME280_pressure;Samples;Min_cycle;Max_cycle;Signal;HPM_P1;HPM_P2
2023/12/09 00:01:51;;;;;;;31.33;18.35;;;;;;;;;;5111027;28;20043;-58
2023/12/09 00:04:16;;;;;;;32.75;19.80;;;;;;;;;;5112037;28;20391;-59
2023/12/09 00:06:47;;;;;;;31.10;19.48;;;;;;;;;;5109459;28;20035;-59
2023/12/09 00:09:13;;;;;;;32.70;19.42;;;;;;;;;;5109468;28;20040;-59
2023/12/09 00:11:39;;;;;;;29.80;18.35;;;;;;;;;;5106930;28;20557;-59
2023/12/09 00:14:05;;;;;;;39.42;21.45;;;;;;;;;;5110842;28;20097;-59
2023/12/09 00:16:31;;;;;;;33.25;18.08;;;;;;;;;;5111190;28;20118;-58
2023/12/09 00:18:57;;;;;;;30.85;19.88;;;;;;;;;;5111538;28;20031;-59
2023/12/09 00:21:24;;;;;;;26.98;18.88;;;;;;;;;;5112620;27;20099;-58
2023/12/09 00:23:49;;;;;;;33.20;19.95;;;;;;;;;;5115372;27;20522;-58
2023/12/09 00:26:16;;;;;;;29.10;16.75;;;;;;;;;;5114970;27;20044;-59
2023/12/09 00:28:41;;;;;;;29.65;16.80;;;;;;;;;;5117871;27;20061;-58
2023/12/09 00:31:08;;;;;;;25.13;16.30;;;;;;;;;;5118420;27;20042;-59
2023/12/09 00:33:35;;;;;;;29.13;16.83;;;;;;;;;;5112525;27;20040;-59
2023/12/09 00:36:01;;;;;;;29.40;17.00;;;;;;;;;;5118590;27;20040;-59
2023/12/09 00:38:27;;;;;;;27.05;17.30;;;;;;;;;;5117589;27;20131;-58
2023/12/09 00:40:53;;;;;;;30.10;18.38;;;;;;;;;;5117504;27;20070;-58
2023/12/09 00:43:19;;;;;;;26.77;18.52;;;;;;;;;;5114550;27;20495;-59
2023/12/09 00:45:45;;;;;;;26.80;17.13;;;;;;;;;;5117635;27;20047;-58
2023/12/09 00:48:11;;;;;;;34.33;20.90;;;;;;;;;;5114267;27;20059;-58
2023/12/09 00:50:37;;;;;;;37.65;20.90;;;;;;;;;;5118574;27;20043;-58
2023/12/09 00:53:03;;;;;;;34.13;19.10;;;;;;;;;;5120044;27;20047;-58
2023/12/09 00:55:29;;;;;;;31.60;18.63;;;;;;;;;;5117340;27;20391;-58
2023/12/09 00:57:55;;;;;;;25.38;16.63;;;;;;;;;;5117194;27;20079;-59
2023/12/09 01:00:21;;;;;;;27.05;16.50;;;;;;;;;;5117459;27;20079;-59
2023/12/09 01:02:47;;;;;;;29.27;18.83;;;;;;;;;;5116187;27;20042;-59
2023/12/09 01:05:13;;;;;;;29.02;17.80;;;;;;;;;;5115972;27;20039;-59
2023/12/09 01:07:39;;;;;;;25.73;16.80;;;;;;;;;;5116496;27;20479;-59
2023/12/09 01:10:05;;;;;;;33.20;17.20;;;;;;;;;;5114560;27;20499;-59
2023/12/09 01:12:31;;;;;;;23.15;16.45;;;;;;;;;;5117444;27;20039;-58
2023/12/09 01:14:58;;;;;;;22.75;15.10;;;;;;;;;;5115322;27;20411;-58
2023/12/09 01:17:24;;;;;;;24.08;15.25;;;;;;;;;;5118773;27;20140;-58
2023/12/09 01:19:49;;;;;;;25.65;16.83;;;;;;;;;;5116769;27;20380;-58
2023/12/09 01:22:15;;;;;;;28.45;16.40;;;;;;;;;;5115157;27;20042;-58
2023/12/09 01:24:42;;;;;;;33.28;17.95;;;;;;;;;;5118480;27;20076;-59
2023/12/09 01:27:08;;;;;;;23.88;17.10;;;;;;;;;;5114731;27;20035;-58
2023/12/09 01:29:36;;;;;;;21.52;14.57;;;;;;;;;;5112360;27;20039;-59
2023/12/09 01:32:02;;;;;;;23.90;15.02;;;;;;;;;;5114697;27;20111;-59
2023/12/09 01:34:28;;;;;;;21.17;15.40;;;;;;;;;;5115545;27;20097;-58
2023/12/09 01:36:54;;;;;;;27.98;16.10;;;;;;;;;;5114603;27;20047;-59
2023/12/09 01:39:21;;;;;;;20.75;15.40;;;;;;;;;;5117052;27;20080;-58
2023/12/09 01:41:47;;;;;;;28.10;16.63;;;;;;;;;;5112409;27;20035;-59
2023/12/09 01:44:13;;;;;;;29.20;16.15;;;;;;;;;;5113475;27;20039;-58
2023/12/09 01:46:39;;;;;;;23.17;15.10;;;;;;;;;;5116288;27;20038;-59
2023/12/09 01:49:05;;;;;;;25.52;16.63;;;;;;;;;;5114695;27;20051;-58
2023/12/09 01:51:32;;;;;;;23.65;16.52;;;;;;;;;;5115469;27;20546;-58
2023/12/09 01:53:59;;;;;;;32.17;17.23;;;;;;;;;;5117375;27;20045;-58
2023/12/09 01:56:25;;;;;;;32.33;16.73;;;;;;;;;;5119799;27;20112;-58
2023/12/09 01:58:51;;;;;;;21.52;14.57;;;;;;;;;;5115453;27;20027;-58
2023/12/09 02:01:17;;;;;;;25.85;15.20;;;;;;;;;;5113683;27;20497;-58
2023/12/09 02:03:43;;;;;;;28.75;17.30;;;;;;;;;;5115237;27;20036;-59
2023/12/09 02:06:10;;;;;;;26.40;15.52;;;;;;;;;;5116527;27;20482;-59
2023/12/09 02:08:36;;;;;;;18.95;14.02;;;;;;;;;;5118465;27;20035;-58
2023/12/09 02:11:21;;;;;;;23.25;14.05;;;;;;;;;;5110145;27;20048;-58
2023/12/09 02:13:53;;;;;;;18.15;12.63;;;;;;;;;;5113116;27;20031;-58
2023/12/09 02:16:23;;;;;;;26.25;15.50;;;;;;;;;;5112989;27;20035;-58
2023/12/09 02:18:50;;;;;;;27.33;15.73;;;;;;;;;;5110955;27;20905;-58
2023/12/09 02:21:15;;;;;;;26.27;15.35;;;;;;;;;;5115153;27;20500;-59
2023/12/09 02:23:41;;;;;;;27.35;16.50;;;;;;;;;;5113115;27;20077;-59
2023/12/09 02:26:11;;;;;;;25.23;14.98;;;;;;;;;;5115795;27;20070;-58
2023/12/09 02:28:39;;;;;;;24.27;14.48;;;;;;;;;;5117418;27;20065;-59
2023/12/09 02:31:09;;;;;;;30.05;14.95;;;;;;;;;;5117781;27;20035;-58
2023/12/09 02:33:35;;;;;;;31.27;14.90;;;;;;;;;;5113804;27;20051;-58
2023/12/09 02:36:02;;;;;;;27.35;15.35;;;;;;;;;;5116347;27;20593;-59
2023/12/09 02:38:28;;;;;;;25.40;15.32;;;;;;;;;;5114470;27;20425;-59
2023/12/09 02:40:55;;;;;;;19.92;14.90;;;;;;;;;;5118195;27;20053;-58
2023/12/09 02:43:21;;;;;;;32.05;15.10;;;;;;;;;;5113169;27;20039;-58
2023/12/09 02:45:47;;;;;;;27.25;13.48;;;;;;;;;;5116317;27;20114;-58
2023/12/09 02:48:13;;;;;;;24.73;15.00;;;;;;;;;;5114388;27;20083;-59
2023/12/09 02:50:39;;;;;;;23.33;13.85;;;;;;;;;;5114063;27;20040;-58
2023/12/09 02:53:05;;;;;;;27.80;16.70;;;;;;;;;;5095444;27;20058;-58
2023/12/09 02:55:31;;;;;;;27.20;15.88;;;;;;;;;;5115868;27;20039;-58
2023/12/09 02:57:57;;;;;;;29.08;15.85;;;;;;;;;;5116147;27;20047;-58
2023/12/09 03:00:23;;;;;;;25.55;16.13;;;;;;;;;;5115183;27;20043;-58
2023/12/09 03:02:49;;;;;;;22.85;15.13;;;;;;;;;;5116568;27;20505;-59
2023/12/09 03:05:15;;;;;;;25.08;15.57;;;;;;;;;;5115511;27;20043;-58
2023/12/09 03:07:41;;;;;;;21.17;14.82;;;;;;;;;;5118110;27;20444;-59
2023/12/09 03:10:07;;;;;;;31.58;15.65;;;;;;;;;;5119403;27;20302;-59
2023/12/09 03:12:33;;;;;;;22.80;15.60;;;;;;;;;;5117364;28;20047;-58
2023/12/09 03:14:59;;;;;;;28.95;15.77;;;;;;;;;;5118058;27;20103;-58
2023/12/09 03:17:25;;;;;;;27.45;16.58;;;;;;;;;;5117855;28;20054;-58
2023/12/09 03:19:51;;;;;;;22.67;14.52;;;;;;;;;;5114847;28;20035;-59
2023/12/09 03:22:17;;;;;;;25.52;14.20;;;;;;;;;;5115151;28;20043;-58
2023/12/09 03:24:43;;;;;;;23.55;15.27;;;;;;;;;;5115050;28;20197;-59
2023/12/09 03:27:09;;;;;;;29.88;17.35;;;;;;;;;;5114842;28;20559;-59
2023/12/09 03:29:38;;;;;;;23.40;14.68;;;;;;;;;;5117376;28;20078;-58
2023/12/09 03:32:04;;;;;;;22.90;13.23;;;;;;;;;;5111893;28;20113;-59
2023/12/09 03:34:30;;;;;;;25.85;15.40;;;;;;;;;;5112367;28;20332;-59
2023/12/09 03:36:56;;;;;;;20.77;13.70;;;;;;;;;;5114654;28;20103;-58
2023/12/09 03:39:22;;;;;;;28.52;16.23;;;;;;;;;;5114517;28;20441;-59
2023/12/09 03:41:48;;;;;;;21.50;13.48;;;;;;;;;;5115616;28;20049;-59
2023/12/09 03:44:14;;;;;;;22.83;14.00;;;;;;;;;;5110058;28;20031;-59
2023/12/09 03:46:40;;;;;;;21.52;13.75;;;;;;;;;;5116371;28;20045;-59
2023/12/09 03:49:06;;;;;;;17.20;11.60;;;;;;;;;;5113797;28;20129;-59
2023/12/09 03:51:32;;;;;;;19.48;11.98;;;;;;;;;;5112730;28;20539;-59
2023/12/09 03:53:59;;;;;;;21.30;12.75;;;;;;;;;;5114900;28;20035;-59
2023/12/09 03:56:25;;;;;;;19.60;12.45;;;;;;;;;;5115022;27;20054;-59
2023/12/09 03:58:51;;;;;;;18.60;10.73;;;;;;;;;;5117806;27;20039;-59
2023/12/09 04:01:17;;;;;;;18.92;12.02;;;;;;;;;;5116569;27;20031;-59
2023/12/09 04:03:43;;;;;;;21.10;12.40;;;;;;;;;;5117446;27;20035;-59
2023/12/09 04:06:09;;;;;;;27.38;13.57;;;;;;;;;;5117528;27;20039;-59
2023/12/09 04:08:35;;;;;;;26.98;14.60;;;;;;;;;;5119652;27;20517;-59
2023/12/09 04:11:03;;;;;;;24.02;13.55;;;;;;;;;;5118590;27;20568;-58
2023/12/09 04:13:29;;;;;;;21.63;12.68;;;;;;;;;;5122890;27;20031;-59
2023/12/09 04:15:55;;;;;;;20.85;14.35;;;;;;;;;;5118586;27;20485;-58
2023/12/09 04:18:21;;;;;;;21.10;14.13;;;;;;;;;;5118518;27;20521;-58
2023/12/09 04:20:47;;;;;;;22.13;13.68;;;;;;;;;;5116678;27;20130;-59
2023/12/09 04:23:13;;;;;;;22.52;14.32;;;;;;;;;;5115149;27;20035;-59
2023/12/09 04:25:39;;;;;;;34.42;13.68;;;;;;;;;;5118045;27;20039;-59
2023/12/09 04:28:05;;;;;;;22.30;13.55;;;;;;;;;;5115530;27;20470;-58
2023/12/09 04:30:31;;;;;;;26.77;13.82;;;;;;;;;;5117757;27;20087;-58
2023/12/09 04:32:57;;;;;;;23.77;14.35;;;;;;;;;;5115011;27;20036;-59
2023/12/09 04:35:23;;;;;;;27.42;14.25;;;;;;;;;;5114409;27;20407;-58
2023/12/09 04:37:49;;;;;;;19.80;13.73;;;;;;;;;;5116443;27;20032;-58
2023/12/09 04:40:15;;;;;;;20.50;13.25;;;;;;;;;;5113534;27;20487;-58
2023/12/09 04:42:41;;;;;;;27.20;14.05;;;;;;;;;;5114336;27;20248;-58
2023/12/09 04:45:07;;;;;;;30.35;15.15;;;;;;;;;;5120236;27;20430;-58
2023/12/09 04:47:34;;;;;;;29.10;14.82;;;;;;;;;;5118017;27;20046;-59
2023/12/09 04:50:00;;;;;;;27.33;14.13;;;;;;;;;;5120468;27;20058;-58
2023/12/09 04:52:26;;;;;;;23.83;13.13;;;;;;;;;;5118314;27;20152;-58
2023/12/09 04:54:52;;;;;;;18.88;12.82;;;;;;;;;;5117894;27;20414;-59
2023/12/09 04:57:18;;;;;;;21.60;11.65;;;;;;;;;;5116467;27;20106;-58
2023/12/09 04:59:44;;;;;;;16.98;11.13;;;;;;;;;;5114568;27;20479;-58
2023/12/09 05:02:10;;;;;;;16.98;11.63;;;;;;;;;;5115698;27;20103;-58
2023/12/09 05:04:36;;;;;;;21.55;12.52;;;;;;;;;;5117319;27;20126;-59
2023/12/09 05:07:03;;;;;;;22.08;12.27;;;;;;;;;;5117766;27;20042;-58
2023/12/09 05:09:29;;;;;;;22.35;13.25;;;;;;;;;;5119293;27;20089;-58
2023/12/09 05:11:55;;;;;;;18.50;12.07;;;;;;;;;;5116953;27;20035;-58
2023/12/09 05:14:21;;;;;;;19.35;11.00;;;;;;;;;;5116306;27;20518;-58
2023/12/09 05:16:47;;;;;;;17.25;10.48;;;;;;;;;;5119301;27;20062;-58
2023/12/09 05:19:13;;;;;;;15.98;10.60;;;;;;;;;;5113737;27;20074;-59
2023/12/09 05:21:39;;;;;;;19.73;11.68;;;;;;;;;;5120800;27;20551;-59
2023/12/09 05:24:05;;;;;;;17.73;11.30;;;;;;;;;;5118968;27;20126;-58
2023/12/09 05:26:31;;;;;;;22.33;11.43;;;;;;;;;;5118811;27;20083;-58
2023/12/09 05:28:57;;;;;;;16.33;10.15;;;;;;;;;;5122096;27;20035;-58
2023/12/09 05:31:24;;;;;;;16.70;9.27;;;;;;;;;;5113795;27;20039;-59
2023/12/09 05:33:50;;;;;;;19.58;11.05;;;;;;;;;;5119843;27;20648;-59
2023/12/09 05:36:16;;;;;;;24.83;11.95;;;;;;;;;;5113985;27;20047;-59
2023/12/09 05:38:43;;;;;;;18.60;11.65;;;;;;;;;;5114773;27;20036;-58
2023/12/09 05:41:09;;;;;;;21.95;11.77;;;;;;;;;;5118225;27;20134;-58
2023/12/09 05:43:38;;;;;;;21.52;10.88;;;;;;;;;;5117486;27;20126;-58
2023/12/09 05:46:05;;;;;;;19.17;10.18;;;;;;;;;;5115434;27;20037;-58
2023/12/09 05:48:34;;;;;;;21.02;10.50;;;;;;;;;;5119973;27;20630;-58
2023/12/09 05:51:00;;;;;;;20.60;11.07;;;;;;;;;;5119173;27;20079;-58
2023/12/09 05:53:26;;;;;;;14.48;10.07;;;;;;;;;;5117734;27;20043;-58
2023/12/09 05:55:52;;;;;;;23.35;11.77;;;;;;;;;;5110961;27;20040;-58
2023/12/09 05:58:18;;;;;;;17.02;10.93;;;;;;;;;;5118500;27;20055;-58
2023/12/09 06:00:45;;;;;;;19.40;10.18;;;;;;;;;;5114683;27;20032;-58
2023/12/09 06:03:11;;;;;;;21.40;10.90;;;;;;;;;;5119681;27;20378;-58
2023/12/09 06:05:37;;;;;;;20.30;11.00;;;;;;;;;;5120681;27;20082;-59
2023/12/09 06:08:03;;;;;;;25.05;10.88;;;;;;;;;;5112533;27;20050;-58
2023/12/09 06:10:29;;;;;;;18.88;10.55;;;;;;;;;;5119875;27;20062;-58
2023/12/09 06:12:55;;;;;;;17.50;9.63;;;;;;;;;;5116856;27;20103;-59
2023/12/09 06:15:21;;;;;;;23.50;10.30;;;;;;;;;;5117530;27;20039;-58
2023/12/09 06:17:47;;;;;;;19.95;10.00;;;;;;;;;;5119325;27;20070;-58
2023/12/09 06:20:13;;;;;;;26.23;10.82;;;;;;;;;;5117092;27;20046;-58
2023/12/09 06:22:39;;;;;;;16.92;9.65;;;;;;;;;;5115913;27;20111;-59
2023/12/09 06:25:05;;;;;;;17.48;10.00;;;;;;;;;;5096973;27;20146;-58
2023/12/09 06:27:31;;;;;;;12.02;7.72;;;;;;;;;;5115072;27;20578;-58
2023/12/09 06:29:57;;;;;;;10.57;7.78;;;;;;;;;;5111654;27;20135;-58
2023/12/09 06:32:23;;;;;;;13.13;7.60;;;;;;;;;;5111991;27;20039;-58
2023/12/09 06:34:49;;;;;;;14.57;8.00;;;;;;;;;;5114767;27;20031;-58
2023/12/09 06:37:15;;;;;;;20.42;9.95;;;;;;;;;;5116837;27;20035;-58
2023/12/09 06:39:41;;;;;;;15.13;8.90;;;;;;;;;;5116470;27;20391;-58
2023/12/09 06:42:07;;;;;;;12.27;8.63;;;;;;;;;;5115393;27;20041;-58
2023/12/09 06:44:33;;;;;;;19.15;9.52;;;;;;;;;;5114472;27;20403;-58
2023/12/09 06:46:59;;;;;;;12.38;8.48;;;;;;;;;;5118899;27;20043;-58
2023/12/09 06:49:25;;;;;;;13.27;7.95;;;;;;;;;;5115228;27;20059;-58
2023/12/09 06:51:51;;;;;;;18.25;8.10;;;;;;;;;;5115258;27;20053;-58
2023/12/09 06:54:17;;;;;;;15.35;7.93;;;;;;;;;;5117832;27;20043;-59
2023/12/09 06:56:43;;;;;;;14.02;8.48;;;;;;;;;;5114935;27;20039;-58
2023/12/09 06:59:10;;;;;;;16.85;8.45;;;;;;;;;;5111165;27;20095;-58
2023/12/09 07:01:36;;;;;;;15.75;8.85;;;;;;;;;;5115071;27;20039;-58
2023/12/09 07:04:02;;;;;;;17.63;9.10;;;;;;;;;;5118239;27;20744;-58
2023/12/09 07:06:29;;;;;;;17.55;8.65;;;;;;;;;;5112979;27;20043;-58
2023/12/09 07:08:58;;;;;;;19.27;9.27;;;;;;;;;;5114509;27;20047;-59
2023/12/09 07:11:24;;;;;;;16.50;9.25;;;;;;;;;;5114613;27;20410;-59
2023/12/09 07:13:50;;;;;;;20.33;9.35;;;;;;;;;;5118489;27;20035;-59
2023/12/09 07:16:18;;;;;;;18.02;9.45;;;;;;;;;;5118765;27;20039;-59
2023/12/09 07:18:46;;;;;;;17.10;8.90;;;;;;;;;;5116193;27;20082;-58
2023/12/09 07:21:12;;;;;;;11.80;7.75;;;;;;;;;;5115867;27;20051;-58
2023/12/09 07:23:38;;;;;;;20.80;8.65;;;;;;;;;;5117216;28;20114;-59
2023/12/09 07:26:04;;;;;;;18.80;9.13;;;;;;;;;;5115292;28;20127;-58
2023/12/09 07:28:30;;;;;;;17.85;8.43;;;;;;;;;;5115020;28;20039;-58
2023/12/09 07:30:56;;;;;;;12.27;7.00;;;;;;;;;;5111255;27;20069;-59
2023/12/09 07:33:23;;;;;;;17.25;8.73;;;;;;;;;;5118188;27;20047;-59
2023/12/09 07:35:49;;;;;;;19.40;7.80;;;;;;;;;;5114961;27;20031;-58
2023/12/09 07:38:15;;;;;;;11.48;7.00;;;;;;;;;;5122327;27;20074;-58
2023/12/09 07:40:41;;;;;;;13.98;7.30;;;;;;;;;;5118848;27;20070;-59
2023/12/09 07:43:08;;;;;;;16.83;7.70;;;;;;;;;;5123344;27;20070;-59
2023/12/09 07:45:34;;;;;;;14.10;8.10;;;;;;;;;;5124701;27;20037;-58
2023/12/09 07:48:03;;;;;;;16.27;8.20;;;;;;;;;;5118018;27;20090;-58
2023/12/09 07:50:32;;;;;;;12.05;7.80;;;;;;;;;;5123336;27;20085;-56
2023/12/09 07:52:58;;;;;;;14.40;7.25;;;;;;;;;;5125364;27;20035;-60
2023/12/09 07:55:24;;;;;;;16.08;8.23;;;;;;;;;;5127801;27;20836;-55
2023/12/09 07:57:50;;;;;;;15.65;8.05;;;;;;;;;;5126679;27;20074;-58
2023/12/09 08:00:17;;;;;;;17.75;7.68;;;;;;;;;;5117625;27;20066;-58
2023/12/09 08:02:43;;;;;;;15.15;7.78;;;;;;;;;;5123364;27;20499;-59
2023/12/09 08:05:09;;;;;;;13.85;7.60;;;;;;;;;;5125757;27;20043;-59
2023/12/09 08:07:35;;;;;;;18.90;9.15;;;;;;;;;;5123988;27;20447;-59
2023/12/09 08:10:01;;;;;;;13.77;7.43;;;;;;;;;;5120630;27;20395;-59
2023/12/09 08:12:27;;;;;;;10.20;7.05;;;;;;;;;;5123308;27;20711;-59
2023/12/09 08:14:53;;;;;;;18.83;8.57;;;;;;;;;;5120033;27;20031;-59
2023/12/09 08:17:19;;;;;;;9.75;6.30;;;;;;;;;;5123949;27;20045;-59
2023/12/09 08:19:45;;;;;;;13.27;7.05;;;;;;;;;;5124546;27;20043;-55
2023/12/09 08:22:12;;;;;;;17.95;7.68;;;;;;;;;;5117532;27;20408;-56
2023/12/09 08:24:38;;;;;;;14.40;7.28;;;;;;;;;;5121602;27;20047;-56
2023/12/09 08:27:05;;;;;;;15.50;7.55;;;;;;;;;;5122145;27;20395;-57
2023/12/09 08:29:31;;;;;;;16.33;8.15;;;;;;;;;;5115922;27;20032;-59
2023/12/09 08:31:57;;;;;;;15.05;8.35;;;;;;;;;;5126472;27;20035;-59
2023/12/09 08:34:23;;;;;;;14.35;6.97;;;;;;;;;;5128058;27;20122;-59
2023/12/09 08:36:49;;;;;;;10.70;6.80;;;;;;;;;;5127522;27;20118;-59
2023/12/09 08:39:17;;;;;;;16.45;7.05;;;;;;;;;;5127248;27;20442;-59
2023/12/09 08:41:43;;;;;;;17.15;7.95;;;;;;;;;;5127839;27;20051;-59
2023/12/09 08:44:09;;;;;;;12.25;6.78;;;;;;;;;;5127642;27;20043;-59
2023/12/09 08:46:35;;;;;;;10.93;6.82;;;;;;;;;;5128012;27;20043;-59
2023/12/09 08:49:02;;;;;;;12.95;6.57;;;;;;;;;;5128793;27;20055;-59
2023/12/09 08:51:29;;;;;;;13.90;6.63;;;;;;;;;;5129242;27;20096;-59
2023/12/09 08:53:55;;;;;;;15.90;7.32;;;;;;;;;;5129383;27;20043;-59
2023/12/09 08:56:21;;;;;;;12.05;6.80;;;;;;;;;;5130052;27;20083;-59
2023/12/09 08:58:47;;;;;;;11.02;6.00;;;;;;;;;;5129744;27;20069;-59
2023/12/09 09:01:13;;;;;;;11.23;6.45;;;;;;;;;;5129004;27;20035;-59
2023/12/09 09:03:39;;;;;;;12.85;6.97;;;;;;;;;;5126396;27;20027;-58
2023/12/09 09:06:05;;;;;;;12.77;6.47;;;;;;;;;;5126963;27;20482;-59
2023/12/09 09:08:31;;;;;;;11.02;6.45;;;;;;;;;;5124943;27;20079;-59
2023/12/09 09:10:57;;;;;;;18.17;7.40;;;;;;;;;;5128948;27;20047;-59
2023/12/09 09:13:23;;;;;;;15.13;7.10;;;;;;;;;;5111968;27;20576;-59
2023/12/09 09:15:50;;;;;;;10.43;5.78;;;;;;;;;;5129472;27;20124;-59
2023/12/09 09:18:17;;;;;;;15.52;7.10;;;;;;;;;;5129490;27;20031;-59
2023/12/09 09:20:43;;;;;;;14.80;6.30;;;;;;;;;;5128490;27;20563;-59
2023/12/09 09:23:09;;;;;;;7.75;5.07;;;;;;;;;;5129433;27;20114;-59
2023/12/09 09:25:35;;;;;;;15.13;6.35;;;;;;;;;;5129825;27;20070;-59
2023/12/09 09:28:03;;;;;;;9.68;5.70;;;;;;;;;;5129176;27;20572;-59
2023/12/09 09:30:29;;;;;;;12.13;5.97;;;;;;;;;;5129753;27;20066;-59
2023/12/09 09:32:55;;;;;;;17.48;5.53;;;;;;;;;;5129058;27;20039;-59
2023/12/09 09:35:21;;;;;;;8.85;5.53;;;;;;;;;;5128265;27;20041;-58
2023/12/09 09:37:47;;;;;;;9.38;5.10;;;;;;;;;;5128977;27;20077;-58
2023/12/09 09:40:14;;;;;;;9.57;5.07;;;;;;;;;;5127472;27;20035;-58
2023/12/09 09:42:44;;;;;;;14.25;5.93;;;;;;;;;;5137402;27;20035;-58
2023/12/09 09:45:18;;;;;;;10.40;5.32;;;;;;;;;;5136604;27;20030;-58
2023/12/09 09:47:46;;;;;;;14.50;5.22;;;;;;;;;;5132787;27;20249;-59
2023/12/09 09:50:13;;;;;;;12.18;5.68;;;;;;;;;;5127130;27;20283;-59
2023/12/09 09:52:41;;;;;;;14.60;6.22;;;;;;;;;;5127786;27;20399;-58
2023/12/09 09:55:07;;;;;;;9.35;5.50;;;;;;;;;;5126869;27;20039;-58
2023/12/09 09:57:34;;;;;;;12.98;5.20;;;;;;;;;;5122930;27;20337;-58
2023/12/09 10:00:00;;;;;;;11.20;5.13;;;;;;;;;;5108272;27;20035;-58
2023/12/09 10:02:27;;;;;;;18.30;6.03;;;;;;;;;;5126289;27;20042;-59
2023/12/09 10:04:53;;;;;;;8.30;4.25;;;;;;;;;;5126689;27;20035;-58
2023/12/09 10:07:21;;;;;;;8.07;4.65;;;;;;;;;;5126755;27;20379;-58
2023/12/09 10:09:47;;;;;;;10.70;4.75;;;;;;;;;;5125749;27;20072;-58
2023/12/09 10:12:13;;;;;;;15.95;5.10;;;;;;;;;;5127635;27;20077;-58
2023/12/09 10:14:39;;;;;;;11.98;4.95;;;;;;;;;;5129039;27;20075;-58
2023/12/09 10:17:05;;;;;;;12.45;4.60;;;;;;;;;;5128692;27;20043;-58
2023/12/09 10:19:34;;;;;;;10.65;4.75;;;;;;;;;;5127909;27;20383;-58
2023/12/09 10:22:00;;;;;;;13.48;5.10;;;;;;;;;;5127501;27;20091;-58
2023/12/09 10:24:27;;;;;;;12.02;3.90;;;;;;;;;;5126337;27;20414;-59
2023/12/09 10:26:53;;;;;;;8.82;4.00;;;;;;;;;;5127454;27;20067;-58
2023/12/09 10:29:19;;;;;;;10.00;3.80;;;;;;;;;;5127411;27;20031;-58
2023/12/09 10:31:45;;;;;;;11.02;3.88;;;;;;;;;;5107734;27;20054;-58
2023/12/09 10:34:13;;;;;;;8.90;4.60;;;;;;;;;;5127164;27;20043;-58
2023/12/09 10:36:39;;;;;;;8.07;4.30;;;;;;;;;;5127091;27;20103;-58
2023/12/09 10:39:05;;;;;;;8.45;3.40;;;;;;;;;;5126615;27;20039;-58
2023/12/09 10:41:31;;;;;;;10.15;3.08;;;;;;;;;;5127099;27;20034;-58
2023/12/09 10:43:58;;;;;;;11.30;4.32;;;;;;;;;;5126633;27;20039;-58
2023/12/09 10:46:24;;;;;;;8.02;2.78;;;;;;;;;;5126424;27;20426;-58
2023/12/09 10:48:51;;;;;;;11.38;3.80;;;;;;;;;;5126648;27;20047;-58
2023/12/09 10:51:18;;;;;;;8.90;3.85;;;;;;;;;;5126820;27;20060;-58
2023/12/09 10:53:44;;;;;;;9.27;3.42;;;;;;;;;;5125951;27;20045;-58
2023/12/09 10:56:10;;;;;;;9.07;3.65;;;;;;;;;;5126426;27;20495;-58
2023/12/09 10:58:37;;;;;;;8.55;3.47;;;;;;;;;;5126049;27;20046;-58
2023/12/09 11:01:04;;;;;;;11.85;3.60;;;;;;;;;;5127288;27;20050;-58
2023/12/09 11:03:30;;;;;;;8.40;3.45;;;;;;;;;;5126659;27;20432;-58
2023/12/09 11:05:58;;;;;;;7.93;3.13;;;;;;;;;;5124931;27;20553;-58
2023/12/09 11:08:28;;;;;;;5.05;2.47;;;;;;;;;;5126558;27;20043;-59
2023/12/09 11:10:54;;;;;;;8.65;3.42;;;;;;;;;;5126423;27;20547;-58
2023/12/09 11:13:20;;;;;;;8.38;2.60;;;;;;;;;;5125543;27;20031;-58
2023/12/09 11:15:46;;;;;;;9.07;2.38;;;;;;;;;;5126659;27;20647;-58
2023/12/09 11:18:16;;;;;;;9.52;3.00;;;;;;;;;;5126377;27;20096;-58
2023/12/09 11:20:42;;;;;;;7.68;2.88;;;;;;;;;;5125569;28;20043;-58
2023/12/09 11:23:10;;;;;;;5.35;2.40;;;;;;;;;;5126187;28;20492;-58
2023/12/09 11:25:38;;;;;;;5.53;2.05;;;;;;;;;;5126686;28;20067;-58
2023/12/09 11:28:04;;;;;;;6.85;3.05;;;;;;;;;;5126335;28;20047;-58
2023/12/09 11:30:34;;;;;;;6.28;2.85;;;;;;;;;;5126436;28;20050;-58
2023/12/09 11:33:00;;;;;;;9.63;3.65;;;;;;;;;;5126176;28;20031;-58
2023/12/09 11:35:26;;;;;;;9.07;2.88;;;;;;;;;;5125529;28;20051;-58
2023/12/09 11:37:54;;;;;;;4.47;2.28;;;;;;;;;;5125977;28;20155;-58
2023/12/09 11:40:21;;;;;;;5.47;2.40;;;;;;;;;;5126039;28;20047;-59
2023/12/09 11:42:47;;;;;;;6.35;2.53;;;;;;;;;;5117487;27;20619;-58
2023/12/09 11:45:13;;;;;;;8.32;2.55;;;;;;;;;;5120430;28;20043;-58
2023/12/09 11:47:40;;;;;;;6.30;2.38;;;;;;;;;;5118109;28;20559;-59
2023/12/09 11:50:07;;;;;;;10.25;2.95;;;;;;;;;;5125438;28;20059;-58
2023/12/09 11:52:33;;;;;;;6.22;2.70;;;;;;;;;;5122223;28;20108;-59
2023/12/09 11:55:10;;;;;;;6.97;1.90;;;;;;;;;;5108884;28;20154;-59
2023/12/09 11:57:36;;;;;;;7.85;2.35;;;;;;;;;;5119137;27;20043;-58
2023/12/09 12:00:06;;;;;;;9.10;2.38;;;;;;;;;;5119921;28;20084;-59
2023/12/09 12:02:32;;;;;;;7.40;2.05;;;;;;;;;;5109736;27;20074;-58
2023/12/09 12:04:58;;;;;;;3.05;2.15;;;;;;;;;;5123509;28;20095;-58
2023/12/09 12:07:24;;;;;;;6.38;2.03;;;;;;;;;;5123016;28;20031;-59
2023/12/09 12:09:50;;;;;;;6.32;2.30;;;;;;;;;;5108103;28;20543;-58
2023/12/09 12:12:17;;;;;;;8.18;2.42;;;;;;;;;;5118900;27;20101;-58
2023/12/09 12:14:43;;;;;;;8.40;2.65;;;;;;;;;;5121961;28;20083;-58
2023/12/09 12:17:10;;;;;;;10.15;2.67;;;;;;;;;;5123565;27;20039;-58
2023/12/09 12:19:36;;;;;;;7.35;2.40;;;;;;;;;;5128232;27;20074;-58
2023/12/09 12:22:02;;;;;;;8.18;1.95;;;;;;;;;;5124170;27;20073;-58
2023/12/09 12:24:28;;;;;;;3.33;1.90;;;;;;;;;;5127138;27;20039;-58
2023/12/09 12:26:57;;;;;;;6.30;2.45;;;;;;;;;;5124965;27;20054;-58
2023/12/09 12:29:23;;;;;;;8.18;2.30;;;;;;;;;;5124480;27;20074;-58
2023/12/09 12:31:52;;;;;;;4.78;2.30;;;;;;;;;;5122991;27;20088;-59
2023/12/09 12:34:18;;;;;;;9.57;2.88;;;;;;;;;;5118162;27;20071;-59
2023/12/09 12:36:48;;;;;;;4.45;2.05;;;;;;;;;;5115198;27;20387;-58
2023/12/09 12:39:15;;;;;;;4.90;2.20;;;;;;;;;;5123412;27;20035;-59
2023/12/09 12:41:41;;;;;;;7.40;2.90;;;;;;;;;;5111766;27;20123;-58
2023/12/09 12:44:07;;;;;;;8.82;2.72;;;;;;;;;;5107988;27;20039;-58
2023/12/09 12:46:33;;;;;;;9.38;2.40;;;;;;;;;;5096097;27;20039;-58
2023/12/09 12:49:00;;;;;;;6.70;2.28;;;;;;;;;;5111265;27;20047;-58
2023/12/09 12:51:27;;;;;;;6.18;2.90;;;;;;;;;;5119414;27;20122;-58
2023/12/09 12:53:53;;;;;;;10.35;2.65;;;;;;;;;;5121222;27;20039;-59
2023/12/09 12:56:19;;;;;;;4.82;2.17;;;;;;;;;;5122454;27;20050;-58
2023/12/09 12:58:45;;;;;;;5.43;2.53;;;;;;;;;;5113045;27;20084;-58
2023/12/09 13:01:11;;;;;;;7.70;2.45;;;;;;;;;;5110640;27;20039;-58
2023/12/09 13:03:37;;;;;;;6.18;2.25;;;;;;;;;;5128143;27;20352;-58
2023/12/09 13:06:06;;;;;;;7.43;2.35;;;;;;;;;;5121386;27;20043;-58
2023/12/09 13:08:32;;;;;;;5.47;2.38;;;;;;;;;;5123725;27;20118;-58
2023/12/09 13:10:58;;;;;;;10.40;3.00;;;;;;;;;;5129331;27;20074;-58
2023/12/09 13:13:24;;;;;;;4.35;2.17;;;;;;;;;;5128718;27;20109;-59
2023/12/09 13:15:51;;;;;;;3.17;2.03;;;;;;;;;;5129308;27;20460;-59
2023/12/09 13:18:17;;;;;;;3.65;1.75;;;;;;;;;;5129068;27;20042;-59
2023/12/09 13:20:45;;;;;;;4.20;2.17;;;;;;;;;;5128786;27;20042;-59
2023/12/09 13:23:11;;;;;;;3.85;1.77;;;;;;;;;;5129125;27;20043;-59
2023/12/09 13:25:37;;;;;;;4.90;1.90;;;;;;;;;;5129709;27;20039;-59
2023/12/09 13:28:03;;;;;;;6.47;2.05;;;;;;;;;;5128898;27;20047;-59
2023/12/09 13:30:30;;;;;;;4.97;1.98;;;;;;;;;;5123128;27;20499;-60
2023/12/09 13:33:01;;;;;;;4.00;1.50;;;;;;;;;;5128498;27;20078;-59
2023/12/09 13:35:30;;;;;;;7.65;2.20;;;;;;;;;;5123981;27;20031;-59
2023/12/09 13:37:57;;;;;;;7.50;1.88;;;;;;;;;;5127513;27;20043;-59
2023/12/09 13:40:23;;;;;;;3.80;1.70;;;;;;;;;;5124197;27;20073;-59
2023/12/09 13:42:52;;;;;;;4.10;1.60;;;;;;;;;;5127399;27;20452;-59
2023/12/09 13:45:21;;;;;;;6.28;1.90;;;;;;;;;;5127466;27;20054;-59
2023/12/09 13:47:47;;;;;;;2.97;1.63;;;;;;;;;;5125600;27;20062;-59
2023/12/09 13:50:13;;;;;;;3.88;1.60;;;;;;;;;;5120065;27;20039;-60
2023/12/09 13:52:40;;;;;;;4.82;1.60;;;;;;;;;;5119521;27;20128;-60
2023/12/09 13:55:06;;;;;;;5.45;1.75;;;;;;;;;;5125761;27;20038;-59
2023/12/09 13:57:32;;;;;;;5.68;2.13;;;;;;;;;;5122570;27;20078;-60
2023/12/09 13:59:59;;;;;;;5.05;1.85;;;;;;;;;;5122869;27;20038;-59
2023/12/09 14:02:26;;;;;;;6.22;2.25;;;;;;;;;;5126591;27;20051;-59
2023/12/09 14:04:52;;;;;;;6.10;1.75;;;;;;;;;;5123285;27;20035;-57
2023/12/09 14:07:19;;;;;;;6.15;1.70;;;;;;;;;;5117481;27;20036;-58
2023/12/09 14:09:45;;;;;;;5.57;2.00;;;;;;;;;;5121453;27;20114;-58
2023/12/09 14:12:12;;;;;;;6.20;1.65;;;;;;;;;;5117153;27;20046;-58
2023/12/09 14:14:38;;;;;;;6.28;1.85;;;;;;;;;;5121192;27;20035;-57
2023/12/09 14:17:05;;;;;;;5.40;1.63;;;;;;;;;;5117061;27;20038;-57
2023/12/09 14:19:31;;;;;;;4.65;1.77;;;;;;;;;;5117738;27;20047;-58
2023/12/09 14:21:57;;;;;;;5.43;1.45;;;;;;;;;;5118337;27;20538;-58
2023/12/09 14:24:23;;;;;;;3.72;1.38;;;;;;;;;;5114056;27;20388;-58